< Typhoon 197507 1975 Season Typhoon 197509 >
Typhoon 197508 (TESS)
General InformationTrack Information on Google Maps || Disaster Info.ResourceGoogle EarthGE AnimationAtom FeedGeoJSON
Detalied Best Track (Time Zone = UTC)
Year Month Day Hour Lat. Long. Pressure (hPa) Wind (kt) Class Image Chart
1975 9 1 12 17.7 151.5 1000 0 2 -- Chart
1975 9 1 18 17.8 150.8 998 0 2 -- Chart
1975 9 2 00 18.0 150.5 996 0 9 -- Chart
1975 9 2 06 18.2 150.3 994 0 9 -- Chart
1975 9 2 12 18.7 150.0 990 0 9 -- Chart
1975 9 2 18 19.0 149.8 985 0 9 -- Chart
1975 9 3 00 19.3 149.6 980 0 9 -- Chart
1975 9 3 06 19.6 149.3 975 0 9 -- Chart
1975 9 3 12 20.0 149.4 970 0 9 -- Chart
1975 9 3 18 20.5 149.4 965 0 9 -- Chart
1975 9 4 00 20.9 149.1 960 0 9 -- Chart
1975 9 4 06 21.6 148.5 955 0 9 -- Chart
1975 9 4 12 22.3 148.0 950 0 9 -- Chart
1975 9 4 18 23.0 147.5 945 0 9 -- Chart
1975 9 5 00 23.9 146.8 945 0 9 -- Chart
1975 9 5 06 25.0 146.2 945 0 9 -- Chart
1975 9 5 12 25.6 145.6 950 0 9 -- Chart
1975 9 5 18 26.3 145.4 950 0 9 -- Chart
1975 9 6 00 26.9 145.3 955 0 9 -- Chart
1975 9 6 06 27.5 145.2 955 0 9 -- Chart
1975 9 6 12 28.1 145.4 955 0 9 -- Chart
1975 9 6 18 28.6 145.6 960 0 9 -- Chart
1975 9 7 00 28.8 145.6 960 0 9 -- Chart
1975 9 7 06 29.1 145.8 965 0 9 -- Chart
1975 9 7 12 28.9 146.3 970 0 9 -- Chart
1975 9 7 18 29.2 146.4 970 0 9 -- Chart
1975 9 8 00 29.6 146.6 970 0 9 -- Chart
1975 9 8 06 30.2 146.7 970 0 9 -- Chart
1975 9 8 12 30.6 147.0 970 0 9 -- Chart
1975 9 8 18 31.3 147.4 975 0 9 -- Chart
1975 9 9 00 32.0 147.5 975 0 9 -- Chart
1975 9 9 06 32.7 148.2 975 0 9 -- Chart
1975 9 9 12 35.0 149.5 975 0 9 -- Chart
1975 9 9 18 36.5 151.0 975 0 9 -- Chart
1975 9 10 00 39.0 152.1 970 0 9 -- Chart
1975 9 10 06 43.0 152.3 966 0 9 -- Chart
1975 9 10 12 47.4 152.4 962 0 6 -- Chart
1975 9 10 18 50.5 153.0 964 0 6 -- Chart
1975 9 11 00 53.0 151.0 968 0 6 -- Chart
1975 9 11 06 55.0 150.0 968 0 6 -- Chart
1975 9 11 12 55.5 151.0 978 0 6 -- Chart
1975 9 11 18 55.5 152.0 978 0 6 -- Chart
1975 9 12 00 55.0 153.5 980 0 6 -- Chart
1975 9 12 06 55.0 156.8 980 0 6 -- Chart
1975 9 12 12 56.0 159.8 984 0 6 -- Chart
1975 9 12 18 56.7 163.5 984 0 6 -- Chart
1975 9 13 00 57.0 167.0 988 0 6 -- Chart
1975 9 13 06 57.3 170.0 988 0 6 -- Chart
1975 9 13 12 58.0 173.0 988 0 6 -- Chart
Japan Meteorological Agency Best Track Data | Correction Date : 1989-06-01
< Typhoon 197507 1975 Season Typhoon 197509 >

Help